sensor_id;sensor_type;location;lat;lon;timestamp;P1;durP1;ratioP1;P2;durP2;ratioP2
27746;SDS011;15138;51.012;4.692;2023-06-01T00:02:16;7.95;;;4.38;;
27746;SDS011;15138;51.012;4.692;2023-06-01T00:04:45;8.32;;;4.10;;
27746;SDS011;15138;51.012;4.692;2023-06-01T00:07:14;9.80;;;4.45;;
27746;SDS011;15138;51.012;4.692;2023-06-01T00:09:43;8.88;;;3.92;;
27746;SDS011;15138;51.012;4.692;2023-06-01T00:12:11;10.85;;;4.50;;
27746;SDS011;15138;51.012;4.692;2023-06-01T00:14:39;8.18;;;3.70;;
27746;SDS011;15138;51.012;4.692;2023-06-01T00:17:09;7.75;;;4.45;;
27746;SDS011;15138;51.012;4.692;2023-06-01T00:19:37;10.18;;;4.45;;
27746;SDS011;15138;51.012;4.692;2023-06-01T00:22:05;8.75;;;4.15;;
27746;SDS011;15138;51.012;4.692;2023-06-01T00:24:34;7.72;;;3.78;;
27746;SDS011;15138;51.012;4.692;2023-06-01T00:27:02;9.10;;;4.13;;
27746;SDS011;15138;51.012;4.692;2023-06-01T00:29:31;15.75;;;4.45;;
27746;SDS011;15138;51.012;4.692;2023-06-01T00:31:59;9.18;;;3.53;;
27746;SDS011;15138;51.012;4.692;2023-06-01T00:34:29;11.38;;;4.05;;
27746;SDS011;15138;51.012;4.692;2023-06-01T00:36:57;9.25;;;3.78;;
27746;SDS011;15138;51.012;4.692;2023-06-01T00:39:25;6.75;;;4.15;;
27746;SDS011;15138;51.012;4.692;2023-06-01T00:41:53;11.55;;;3.97;;
27746;SDS011;15138;51.012;4.692;2023-06-01T00:44:24;11.13;;;4.25;;
27746;SDS011;15138;51.012;4.692;2023-06-01T00:46:52;15.85;;;4.57;;
27746;SDS011;15138;51.012;4.692;2023-06-01T00:49:20;6.13;;;3.90;;
27746;SDS011;15138;51.012;4.692;2023-06-01T00:51:51;9.77;;;4.50;;
27746;SDS011;15138;51.012;4.692;2023-06-01T00:54:19;8.05;;;3.85;;
27746;SDS011;15138;51.012;4.692;2023-06-01T00:56:47;11.60;;;4.63;;
27746;SDS011;15138;51.012;4.692;2023-06-01T00:59:16;11.32;;;5.30;;
27746;SDS011;15138;51.012;4.692;2023-06-01T01:01:44;7.28;;;3.78;;
27746;SDS011;15138;51.012;4.692;2023-06-01T01:04:12;9.13;;;4.97;;
27746;SDS011;15138;51.012;4.692;2023-06-01T01:06:56;14.02;;;5.15;;
27746;SDS011;15138;51.012;4.692;2023-06-01T01:09:36;7.40;;;4.28;;
27746;SDS011;15138;51.012;4.692;2023-06-01T01:12:14;9.05;;;4.13;;
27746;SDS011;15138;51.012;4.692;2023-06-01T01:14:50;8.05;;;4.25;;
27746;SDS011;15138;51.012;4.692;2023-06-01T01:17:26;10.48;;;5.22;;
27746;SDS011;15138;51.012;4.692;2023-06-01T01:19:59;9.55;;;4.47;;
27746;SDS011;15138;51.012;4.692;2023-06-01T01:22:56;8.07;;;4.07;;
27746;SDS011;15138;51.012;4.692;2023-06-01T01:25:49;8.13;;;4.82;;
27746;SDS011;15138;51.012;4.692;2023-06-01T01:28:32;9.68;;;4.30;;
27746;SDS011;15138;51.012;4.692;2023-06-01T01:31:04;6.38;;;3.78;;
27746;SDS011;15138;51.012;4.692;2023-06-01T01:33:34;12.27;;;5.78;;
27746;SDS011;15138;51.012;4.692;2023-06-01T01:36:03;11.32;;;5.78;;
27746;SDS011;15138;51.012;4.692;2023-06-01T01:38:34;14.10;;;5.13;;
27746;SDS011;15138;51.012;4.692;2023-06-01T01:41:02;7.35;;;3.90;;
27746;SDS011;15138;51.012;4.692;2023-06-01T01:43:32;9.60;;;4.72;;
27746;SDS011;15138;51.012;4.692;2023-06-01T01:46:04;10.27;;;5.32;;
27746;SDS011;15138;51.012;4.692;2023-06-01T01:48:44;11.52;;;5.47;;
27746;SDS011;15138;51.012;4.692;2023-06-01T01:51:19;8.73;;;4.35;;
27746;SDS011;15138;51.012;4.692;2023-06-01T01:53:52;10.00;;;6.28;;
27746;SDS011;15138;51.012;4.692;2023-06-01T01:56:22;11.93;;;5.80;;
27746;SDS011;15138;51.012;4.692;2023-06-01T01:58:54;9.65;;;4.57;;
27746;SDS011;15138;51.012;4.692;2023-06-01T02:01:23;11.75;;;6.03;;
27746;SDS011;15138;51.012;4.692;2023-06-01T02:03:59;15.07;;;6.47;;
27746;SDS011;15138;51.012;4.692;2023-06-01T02:06:28;11.00;;;5.15;;
27746;SDS011;15138;51.012;4.692;2023-06-01T02:08:56;8.55;;;4.85;;
27746;SDS011;15138;51.012;4.692;2023-06-01T02:11:25;11.30;;;5.65;;
27746;SDS011;15138;51.012;4.692;2023-06-01T02:13:54;10.18;;;5.35;;
27746;SDS011;15138;51.012;4.692;2023-06-01T02:16:23;12.35;;;6.43;;
27746;SDS011;15138;51.012;4.692;2023-06-01T02:18:51;11.30;;;6.05;;
27746;SDS011;15138;51.012;4.692;2023-06-01T02:21:19;12.75;;;6.35;;
27746;SDS011;15138;51.012;4.692;2023-06-01T02:23:48;13.82;;;6.78;;
27746;SDS011;15138;51.012;4.692;2023-06-01T02:26:17;11.50;;;6.03;;
27746;SDS011;15138;51.012;4.692;2023-06-01T02:28:45;13.30;;;7.65;;
27746;SDS011;15138;51.012;4.692;2023-06-01T02:31:15;13.05;;;7.13;;
27746;SDS011;15138;51.012;4.692;2023-06-01T02:33:44;10.98;;;5.55;;
27746;SDS011;15138;51.012;4.692;2023-06-01T02:36:12;17.38;;;6.80;;
27746;SDS011;15138;51.012;4.692;2023-06-01T02:38:42;10.65;;;6.07;;
27746;SDS011;15138;51.012;4.692;2023-06-01T02:41:11;15.02;;;7.88;;
27746;SDS011;15138;51.012;4.692;2023-06-01T02:43:39;10.13;;;5.13;;
27746;SDS011;15138;51.012;4.692;2023-06-01T02:46:07;11.82;;;6.55;;
27746;SDS011;15138;51.012;4.692;2023-06-01T02:48:37;18.73;;;8.20;;
27746;SDS011;15138;51.012;4.692;2023-06-01T02:51:05;13.10;;;6.05;;
27746;SDS011;15138;51.012;4.692;2023-06-01T02:53:33;13.20;;;7.35;;
27746;SDS011;15138;51.012;4.692;2023-06-01T02:56:01;12.50;;;7.78;;
27746;SDS011;15138;51.012;4.692;2023-06-01T02:58:29;15.00;;;6.93;;
27746;SDS011;15138;51.012;4.692;2023-06-01T03:00:58;10.95;;;6.80;;
27746;SDS011;15138;51.012;4.692;2023-06-01T03:03:27;12.00;;;6.65;;
27746;SDS011;15138;51.012;4.692;2023-06-01T03:05:56;13.13;;;6.18;;
27746;SDS011;15138;51.012;4.692;2023-06-01T03:08:24;14.68;;;8.40;;
27746;SDS011;15138;51.012;4.692;2023-06-01T03:10:52;15.85;;;7.07;;
27746;SDS011;15138;51.012;4.692;2023-06-01T03:13:21;12.13;;;5.93;;
27746;SDS011;15138;51.012;4.692;2023-06-01T03:15:49;13.27;;;7.43;;
27746;SDS011;15138;51.012;4.692;2023-06-01T03:18:17;13.23;;;7.95;;
27746;SDS011;15138;51.012;4.692;2023-06-01T03:20:45;14.80;;;7.22;;
27746;SDS011;15138;51.012;4.692;2023-06-01T03:23:16;11.23;;;6.20;;
27746;SDS011;15138;51.012;4.692;2023-06-01T03:25:44;13.73;;;7.13;;
27746;SDS011;15138;51.012;4.692;2023-06-01T03:28:12;16.92;;;7.25;;
27746;SDS011;15138;51.012;4.692;2023-06-01T03:30:41;15.32;;;8.10;;
27746;SDS011;15138;51.012;4.692;2023-06-01T03:33:09;12.93;;;6.57;;
27746;SDS011;15138;51.012;4.692;2023-06-01T03:35:37;15.45;;;8.55;;
27746;SDS011;15138;51.012;4.692;2023-06-01T03:38:07;12.57;;;6.35;;
27746;SDS011;15138;51.012;4.692;2023-06-01T03:40:36;16.42;;;8.88;;
27746;SDS011;15138;51.012;4.692;2023-06-01T03:43:04;11.68;;;6.72;;
27746;SDS011;15138;51.012;4.692;2023-06-01T03:45:33;16.70;;;9.05;;
27746;SDS011;15138;51.012;4.692;2023-06-01T03:48:01;14.35;;;8.48;;
27746;SDS011;15138;51.012;4.692;2023-06-01T03:50:29;12.80;;;9.25;;
27746;SDS011;15138;51.012;4.692;2023-06-01T03:52:57;13.65;;;7.68;;
27746;SDS011;15138;51.012;4.692;2023-06-01T03:55:25;11.57;;;6.93;;
27746;SDS011;15138;51.012;4.692;2023-06-01T03:57:55;19.10;;;8.13;;
27746;SDS011;15138;51.012;4.692;2023-06-01T04:00:23;14.45;;;8.40;;
27746;SDS011;15138;51.012;4.692;2023-06-01T04:02:53;9.70;;;6.63;;
27746;SDS011;15138;51.012;4.692;2023-06-01T04:05:23;10.23;;;6.28;;
27746;SDS011;15138;51.012;4.692;2023-06-01T04:07:53;13.18;;;7.30;;
27746;SDS011;15138;51.012;4.692;2023-06-01T04:10:22;12.95;;;7.03;;
27746;SDS011;15138;51.012;4.692;2023-06-01T04:12:50;13.10;;;7.28;;
27746;SDS011;15138;51.012;4.692;2023-06-01T04:15:20;16.38;;;8.55;;
27746;SDS011;15138;51.012;4.692;2023-06-01T04:17:49;12.45;;;7.45;;
27746;SDS011;15138;51.012;4.692;2023-06-01T04:20:17;15.55;;;8.02;;
27746;SDS011;15138;51.012;4.692;2023-06-01T04:22:46;10.88;;;6.57;;
27746;SDS011;15138;51.012;4.692;2023-06-01T04:25:15;17.75;;;7.20;;
27746;SDS011;15138;51.012;4.692;2023-06-01T04:27:47;13.52;;;8.13;;
27746;SDS011;15138;51.012;4.692;2023-06-01T04:30:19;14.32;;;8.35;;
27746;SDS011;15138;51.012;4.692;2023-06-01T04:32:48;13.10;;;8.45;;
27746;SDS011;15138;51.012;4.692;2023-06-01T04:35:17;19.25;;;10.70;;
27746;SDS011;15138;51.012;4.692;2023-06-01T04:37:45;16.15;;;7.22;;
27746;SDS011;15138;51.012;4.692;2023-06-01T04:40:15;18.42;;;9.45;;
27746;SDS011;15138;51.012;4.692;2023-06-01T04:42:43;18.30;;;9.73;;
27746;SDS011;15138;51.012;4.692;2023-06-01T04:45:16;19.42;;;11.00;;
27746;SDS011;15138;51.012;4.692;2023-06-01T04:47:46;14.93;;;8.38;;
27746;SDS011;15138;51.012;4.692;2023-06-01T04:50:15;15.43;;;8.75;;
27746;SDS011;15138;51.012;4.692;2023-06-01T04:52:43;15.75;;;9.50;;
27746;SDS011;15138;51.012;4.692;2023-06-01T04:55:12;15.52;;;9.65;;
27746;SDS011;15138;51.012;4.692;2023-06-01T04:57:41;13.02;;;7.47;;
27746;SDS011;15138;51.012;4.692;2023-06-01T05:00:11;19.23;;;8.40;;
27746;SDS011;15138;51.012;4.692;2023-06-01T05:02:40;19.98;;;9.90;;
27746;SDS011;15138;51.012;4.692;2023-06-01T05:05:12;16.60;;;8.82;;
27746;SDS011;15138;51.012;4.692;2023-06-01T05:07:41;20.92;;;11.32;;
27746;SDS011;15138;51.012;4.692;2023-06-01T05:10:10;16.30;;;8.98;;
27746;SDS011;15138;51.012;4.692;2023-06-01T05:12:40;16.73;;;8.70;;
27746;SDS011;15138;51.012;4.692;2023-06-01T05:15:08;11.75;;;6.97;;
27746;SDS011;15138;51.012;4.692;2023-06-01T05:17:37;15.65;;;9.20;;
27746;SDS011;15138;51.012;4.692;2023-06-01T05:20:06;15.57;;;10.02;;
27746;SDS011;15138;51.012;4.692;2023-06-01T05:22:39;12.55;;;7.72;;
27746;SDS011;15138;51.012;4.692;2023-06-01T05:25:07;19.52;;;10.38;;
27746;SDS011;15138;51.012;4.692;2023-06-01T05:27:36;18.00;;;10.15;;
27746;SDS011;15138;51.012;4.692;2023-06-01T05:30:05;16.42;;;9.50;;
27746;SDS011;15138;51.012;4.692;2023-06-01T05:32:34;13.27;;;8.25;;
27746;SDS011;15138;51.012;4.692;2023-06-01T05:35:02;14.18;;;7.75;;
27746;SDS011;15138;51.012;4.692;2023-06-01T05:37:32;13.38;;;7.95;;
27746;SDS011;15138;51.012;4.692;2023-06-01T05:40:02;16.10;;;7.25;;
27746;SDS011;15138;51.012;4.692;2023-06-01T05:42:34;15.23;;;8.10;;
27746;SDS011;15138;51.012;4.692;2023-06-01T05:45:02;15.85;;;8.13;;
27746;SDS011;15138;51.012;4.692;2023-06-01T05:47:31;20.55;;;7.55;;
27746;SDS011;15138;51.012;4.692;2023-06-01T05:49:59;16.77;;;8.82;;
27746;SDS011;15138;51.012;4.692;2023-06-01T05:52:27;18.70;;;9.80;;
27746;SDS011;15138;51.012;4.692;2023-06-01T05:54:56;19.38;;;10.43;;
27746;SDS011;15138;51.012;4.692;2023-06-01T05:57:25;17.92;;;9.32;;
27746;SDS011;15138;51.012;4.692;2023-06-01T05:59:53;23.52;;;11.00;;
27746;SDS011;15138;51.012;4.692;2023-06-01T06:02:21;11.60;;;7.60;;
27746;SDS011;15138;51.012;4.692;2023-06-01T06:04:50;20.42;;;9.98;;
27746;SDS011;15138;51.012;4.692;2023-06-01T06:07:18;14.20;;;8.63;;
27746;SDS011;15138;51.012;4.692;2023-06-01T06:09:46;18.83;;;9.70;;
27746;SDS011;15138;51.012;4.692;2023-06-01T06:12:14;15.30;;;7.25;;
27746;SDS011;15138;51.012;4.692;2023-06-01T06:14:44;16.10;;;8.80;;
27746;SDS011;15138;51.012;4.692;2023-06-01T06:17:12;12.57;;;8.13;;
27746;SDS011;15138;51.012;4.692;2023-06-01T06:19:40;13.35;;;7.40;;
27746;SDS011;15138;51.012;4.692;2023-06-01T06:22:09;12.70;;;7.63;;
27746;SDS011;15138;51.012;4.692;2023-06-01T06:24:38;16.73;;;8.38;;
27746;SDS011;15138;51.012;4.692;2023-06-01T06:27:06;12.25;;;7.18;;
27746;SDS011;15138;51.012;4.692;2023-06-01T06:29:36;14.50;;;7.10;;
27746;SDS011;15138;51.012;4.692;2023-06-01T06:32:06;11.63;;;6.60;;
27746;SDS011;15138;51.012;4.692;2023-06-01T06:34:35;14.07;;;7.07;;
27746;SDS011;15138;51.012;4.692;2023-06-01T06:37:03;10.52;;;5.97;;
27746;SDS011;15138;51.012;4.692;2023-06-01T06:39:32;14.02;;;6.95;;
27746;SDS011;15138;51.012;4.692;2023-06-01T06:42:03;15.20;;;9.23;;
27746;SDS011;15138;51.012;4.692;2023-06-01T06:44:32;10.32;;;5.78;;
27746;SDS011;15138;51.012;4.692;2023-06-01T06:47:01;17.33;;;7.93;;
27746;SDS011;15138;51.012;4.692;2023-06-01T06:49:30;14.63;;;7.80;;
27746;SDS011;15138;51.012;4.692;2023-06-01T06:51:58;16.35;;;8.02;;
27746;SDS011;15138;51.012;4.692;2023-06-01T06:54:26;14.88;;;8.18;;
27746;SDS011;15138;51.012;4.692;2023-06-01T06:56:55;21.65;;;9.32;;
27746;SDS011;15138;51.012;4.692;2023-06-01T06:59:23;14.65;;;7.38;;
27746;SDS011;15138;51.012;4.692;2023-06-01T07:01:51;12.93;;;8.13;;
27746;SDS011;15138;51.012;4.692;2023-06-01T07:04:19;15.18;;;8.30;;
27746;SDS011;15138;51.012;4.692;2023-06-01T07:06:49;14.20;;;7.50;;
27746;SDS011;15138;51.012;4.692;2023-06-01T07:09:18;17.23;;;8.68;;
27746;SDS011;15138;51.012;4.692;2023-06-01T07:11:46;21.25;;;8.95;;
27746;SDS011;15138;51.012;4.692;2023-06-01T07:14:15;17.05;;;9.35;;
27746;SDS011;15138;51.012;4.692;2023-06-01T07:16:43;18.20;;;9.57;;
27746;SDS011;15138;51.012;4.692;2023-06-01T07:19:11;14.73;;;8.48;;
27746;SDS011;15138;51.012;4.692;2023-06-01T07:21:39;15.38;;;7.82;;
27746;SDS011;15138;51.012;4.692;2023-06-01T07:24:09;13.20;;;7.75;;
27746;SDS011;15138;51.012;4.692;2023-06-01T07:26:38;16.80;;;8.10;;
27746;SDS011;15138;51.012;4.692;2023-06-01T07:29:06;18.67;;;9.95;;
27746;SDS011;15138;51.012;4.692;2023-06-01T07:31:35;14.25;;;7.53;;
27746;SDS011;15138;51.012;4.692;2023-06-01T07:34:04;13.70;;;7.13;;
27746;SDS011;15138;51.012;4.692;2023-06-01T07:36:33;14.27;;;8.60;;
27746;SDS011;15138;51.012;4.692;2023-06-01T07:39:03;16.95;;;7.78;;
27746;SDS011;15138;51.012;4.692;2023-06-01T07:41:36;11.60;;;6.32;;
27746;SDS011;15138;51.012;4.692;2023-06-01T07:44:06;13.70;;;6.70;;
27746;SDS011;15138;51.012;4.692;2023-06-01T07:46:34;15.93;;;8.38;;
27746;SDS011;15138;51.012;4.692;2023-06-01T07:49:02;14.90;;;9.25;;
27746;SDS011;15138;51.012;4.692;2023-06-01T07:51:30;13.40;;;6.82;;
27746;SDS011;15138;51.012;4.692;2023-06-01T07:53:58;13.80;;;8.20;;
27746;SDS011;15138;51.012;4.692;2023-06-01T07:56:27;17.23;;;9.23;;
27746;SDS011;15138;51.012;4.692;2023-06-01T07:58:57;13.43;;;8.40;;
27746;SDS011;15138;51.012;4.692;2023-06-01T08:01:25;17.17;;;8.40;;
27746;SDS011;15138;51.012;4.692;2023-06-01T08:03:53;12.68;;;8.02;;
27746;SDS011;15138;51.012;4.692;2023-06-01T08:06:22;14.18;;;7.03;;
27746;SDS011;15138;51.012;4.692;2023-06-01T08:08:51;11.43;;;6.90;;
27746;SDS011;15138;51.012;4.692;2023-06-01T08:11:19;21.45;;;7.72;;
27746;SDS011;15138;51.012;4.692;2023-06-01T08:13:49;13.25;;;7.05;;
27746;SDS011;15138;51.012;4.692;2023-06-01T08:16:20;16.33;;;8.50;;
27746;SDS011;15138;51.012;4.692;2023-06-01T08:18:48;14.48;;;7.32;;
27746;SDS011;15138;51.012;4.692;2023-06-01T08:21:16;12.90;;;6.57;;
27746;SDS011;15138;51.012;4.692;2023-06-01T08:23:45;14.30;;;6.70;;
27746;SDS011;15138;51.012;4.692;2023-06-01T08:26:14;13.35;;;7.00;;
27746;SDS011;15138;51.012;4.692;2023-06-01T08:28:42;14.80;;;6.57;;
27746;SDS011;15138;51.012;4.692;2023-06-01T08:31:17;11.73;;;7.07;;
27746;SDS011;15138;51.012;4.692;2023-06-01T08:33:48;15.05;;;7.82;;
27746;SDS011;15138;51.012;4.692;2023-06-01T08:36:18;16.90;;;8.93;;
27746;SDS011;15138;51.012;4.692;2023-06-01T08:38:48;18.02;;;7.95;;
27746;SDS011;15138;51.012;4.692;2023-06-01T08:41:17;14.40;;;7.55;;
27746;SDS011;15138;51.012;4.692;2023-06-01T08:43:53;16.40;;;8.50;;
27746;SDS011;15138;51.012;4.692;2023-06-01T08:46:26;11.73;;;6.10;;
27746;SDS011;15138;51.012;4.692;2023-06-01T08:48:58;15.90;;;8.43;;
27746;SDS011;15138;51.012;4.692;2023-06-01T08:51:27;11.30;;;7.18;;
27746;SDS011;15138;51.012;4.692;2023-06-01T08:53:59;15.00;;;9.88;;
27746;SDS011;15138;51.012;4.692;2023-06-01T08:56:31;19.13;;;9.05;;
27746;SDS011;15138;51.012;4.692;2023-06-01T08:58:59;13.80;;;6.65;;
27746;SDS011;15138;51.012;4.692;2023-06-01T09:01:30;12.80;;;8.38;;
27746;SDS011;15138;51.012;4.692;2023-06-01T09:03:58;15.52;;;7.97;;
27746;SDS011;15138;51.012;4.692;2023-06-01T09:06:27;13.68;;;6.95;;
27746;SDS011;15138;51.012;4.692;2023-06-01T09:08:56;17.52;;;8.50;;
27746;SDS011;15138;51.012;4.692;2023-06-01T09:11:25;19.23;;;9.70;;
27746;SDS011;15138;51.012;4.692;2023-06-01T09:13:53;17.42;;;8.52;;
27746;SDS011;15138;51.012;4.692;2023-06-01T09:16:21;9.40;;;5.43;;
27746;SDS011;15138;51.012;4.692;2023-06-01T09:19:04;13.43;;;7.45;;
27746;SDS011;15138;51.012;4.692;2023-06-01T09:21:35;19.00;;;10.10;;
27746;SDS011;15138;51.012;4.692;2023-06-01T09:24:17;14.82;;;7.97;;
27746;SDS011;15138;51.012;4.692;2023-06-01T09:26:47;24.42;;;11.90;;
27746;SDS011;15138;51.012;4.692;2023-06-01T09:29:16;16.73;;;9.20;;
27746;SDS011;15138;51.012;4.692;2023-06-01T09:31:45;20.65;;;8.90;;
27746;SDS011;15138;51.012;4.692;2023-06-01T09:34:16;19.75;;;11.45;;
27746;SDS011;15138;51.012;4.692;2023-06-01T09:36:45;15.10;;;8.20;;
27746;SDS011;15138;51.012;4.692;2023-06-01T09:39:15;14.07;;;7.68;;
27746;SDS011;15138;51.012;4.692;2023-06-01T09:41:45;12.13;;;6.97;;
27746;SDS011;15138;51.012;4.692;2023-06-01T09:44:14;15.27;;;9.82;;
27746;SDS011;15138;51.012;4.692;2023-06-01T09:46:50;15.38;;;8.65;;
27746;SDS011;15138;51.012;4.692;2023-06-01T09:49:21;11.15;;;7.93;;
27746;SDS011;15138;51.012;4.692;2023-06-01T09:51:51;16.55;;;8.40;;
27746;SDS011;15138;51.012;4.692;2023-06-01T09:54:27;12.15;;;5.63;;
27746;SDS011;15138;51.012;4.692;2023-06-01T09:59:39;14.43;;;8.98;;
27746;SDS011;15138;51.012;4.692;2023-06-01T10:02:11;18.50;;;10.68;;
27746;SDS011;15138;51.012;4.692;2023-06-01T10:04:44;17.10;;;10.20;;
27746;SDS011;15138;51.012;4.692;2023-06-01T10:07:13;14.20;;;8.43;;
27746;SDS011;15138;51.012;4.692;2023-06-01T10:09:43;18.42;;;11.13;;
27746;SDS011;15138;51.012;4.692;2023-06-01T10:12:12;13.38;;;8.20;;
27746;SDS011;15138;51.012;4.692;2023-06-01T10:14:40;18.60;;;9.85;;
27746;SDS011;15138;51.012;4.692;2023-06-01T10:17:09;13.55;;;8.38;;
27746;SDS011;15138;51.012;4.692;2023-06-01T10:19:38;14.73;;;8.55;;
27746;SDS011;15138;51.012;4.692;2023-06-01T10:22:08;15.73;;;9.73;;
27746;SDS011;15138;51.012;4.692;2023-06-01T10:24:37;17.85;;;9.70;;
27746;SDS011;15138;51.012;4.692;2023-06-01T10:27:10;15.77;;;8.80;;
27746;SDS011;15138;51.012;4.692;2023-06-01T10:29:40;16.38;;;8.73;;
27746;SDS011;15138;51.012;4.692;2023-06-01T10:34:57;19.25;;;10.43;;
27746;SDS011;15138;51.012;4.692;2023-06-01T10:37:27;19.90;;;10.88;;
27746;SDS011;15138;51.012;4.692;2023-06-01T10:40:09;14.77;;;8.60;;
27746;SDS011;15138;51.012;4.692;2023-06-01T10:42:38;23.33;;;9.93;;
27746;SDS011;15138;51.012;4.692;2023-06-01T10:45:07;17.60;;;8.50;;
27746;SDS011;15138;51.012;4.692;2023-06-01T10:47:45;16.05;;;10.75;;
27746;SDS011;15138;51.012;4.692;2023-06-01T10:50:17;22.90;;;10.25;;
27746;SDS011;15138;51.012;4.692;2023-06-01T10:52:47;21.52;;;10.35;;
27746;SDS011;15138;51.012;4.692;2023-06-01T10:55:21;18.40;;;10.90;;
27746;SDS011;15138;51.012;4.692;2023-06-01T10:57:52;18.30;;;9.75;;
27746;SDS011;15138;51.012;4.692;2023-06-01T11:00:40;18.42;;;10.45;;
27746;SDS011;15138;51.012;4.692;2023-06-01T11:03:11;18.63;;;10.43;;
27746;SDS011;15138;51.012;4.692;2023-06-01T11:05:41;18.40;;;8.75;;
27746;SDS011;15138;51.012;4.692;2023-06-01T11:10:59;15.80;;;9.70;;
27746;SDS011;15138;51.012;4.692;2023-06-01T11:13:30;17.40;;;9.85;;
27746;SDS011;15138;51.012;4.692;2023-06-01T11:18:48;19.55;;;10.13;;
27746;SDS011;15138;51.012;4.692;2023-06-01T11:21:24;21.30;;;10.20;;
27746;SDS011;15138;51.012;4.692;2023-06-01T11:23:54;17.50;;;10.52;;
27746;SDS011;15138;51.012;4.692;2023-06-01T11:26:28;21.55;;;7.22;;
27746;SDS011;15138;51.012;4.692;2023-06-01T11:29:04;18.80;;;9.95;;
27746;SDS011;15138;51.012;4.692;2023-06-01T11:31:37;17.65;;;10.05;;
27746;SDS011;15138;51.012;4.692;2023-06-01T11:34:07;16.27;;;8.80;;
27746;SDS011;15138;51.012;4.692;2023-06-01T11:36:36;15.68;;;8.48;;
27746;SDS011;15138;51.012;4.692;2023-06-01T11:39:05;18.25;;;9.23;;
27746;SDS011;15138;51.012;4.692;2023-06-01T11:41:47;15.85;;;8.35;;
27746;SDS011;15138;51.012;4.692;2023-06-01T11:44:16;14.65;;;8.32;;
27746;SDS011;15138;51.012;4.692;2023-06-01T11:46:51;17.80;;;9.30;;
27746;SDS011;15138;51.012;4.692;2023-06-01T11:49:20;19.92;;;8.57;;
27746;SDS011;15138;51.012;4.692;2023-06-01T11:51:48;16.27;;;8.90;;
27746;SDS011;15138;51.012;4.692;2023-06-01T11:54:25;17.67;;;9.77;;
27746;SDS011;15138;51.012;4.692;2023-06-01T11:56:55;18.08;;;8.60;;
27746;SDS011;15138;51.012;4.692;2023-06-01T11:59:25;10.57;;;6.28;;
27746;SDS011;15138;51.012;4.692;2023-06-01T12:01:54;15.90;;;7.80;;
27746;SDS011;15138;51.012;4.692;2023-06-01T12:04:23;17.98;;;9.50;;
27746;SDS011;15138;51.012;4.692;2023-06-01T12:07:03;18.52;;;9.95;;
27746;SDS011;15138;51.012;4.692;2023-06-01T12:09:33;16.85;;;9.13;;
27746;SDS011;15138;51.012;4.692;2023-06-01T12:12:04;19.35;;;8.73;;
27746;SDS011;15138;51.012;4.692;2023-06-01T12:14:34;16.13;;;8.88;;
27746;SDS011;15138;51.012;4.692;2023-06-01T12:17:03;14.27;;;7.95;;
27746;SDS011;15138;51.012;4.692;2023-06-01T12:19:32;16.40;;;7.68;;
27746;SDS011;15138;51.012;4.692;2023-06-01T12:22:02;15.23;;;8.32;;
27746;SDS011;15138;51.012;4.692;2023-06-01T12:24:31;15.73;;;7.90;;
27746;SDS011;15138;51.012;4.692;2023-06-01T12:27:00;16.33;;;9.02;;
27746;SDS011;15138;51.012;4.692;2023-06-01T12:29:37;18.08;;;9.05;;
27746;SDS011;15138;51.012;4.692;2023-06-01T12:32:08;17.10;;;7.78;;
27746;SDS011;15138;51.012;4.692;2023-06-01T12:34:37;13.82;;;6.13;;
27746;SDS011;15138;51.012;4.692;2023-06-01T12:37:12;15.27;;;7.70;;
27746;SDS011;15138;51.012;4.692;2023-06-01T12:39:40;15.80;;;8.73;;
27746;SDS011;15138;51.012;4.692;2023-06-01T12:42:09;13.60;;;7.45;;
27746;SDS011;15138;51.012;4.692;2023-06-01T12:44:40;32.88;;;8.57;;
27746;SDS011;15138;51.012;4.692;2023-06-01T12:47:08;11.77;;;7.07;;
27746;SDS011;15138;51.012;4.692;2023-06-01T12:49:37;15.20;;;7.55;;
27746;SDS011;15138;51.012;4.692;2023-06-01T12:52:06;14.30;;;6.78;;
27746;SDS011;15138;51.012;4.692;2023-06-01T12:54:35;15.98;;;7.20;;
27746;SDS011;15138;51.012;4.692;2023-06-01T12:57:04;14.23;;;7.00;;
27746;SDS011;15138;51.012;4.692;2023-06-01T12:59:42;17.38;;;8.27;;
27746;SDS011;15138;51.012;4.692;2023-06-01T13:02:10;20.05;;;8.18;;
27746;SDS011;15138;51.012;4.692;2023-06-01T13:04:41;13.65;;;6.85;;
27746;SDS011;15138;51.012;4.692;2023-06-01T13:07:10;18.90;;;8.27;;
27746;SDS011;15138;51.012;4.692;2023-06-01T13:09:39;16.38;;;8.63;;
27746;SDS011;15138;51.012;4.692;2023-06-01T13:12:08;16.10;;;6.97;;
27746;SDS011;15138;51.012;4.692;2023-06-01T13:14:37;14.40;;;7.70;;
27746;SDS011;15138;51.012;4.692;2023-06-01T13:17:06;11.65;;;6.60;;
27746;SDS011;15138;51.012;4.692;2023-06-01T13:19:35;14.32;;;7.72;;
27746;SDS011;15138;51.012;4.692;2023-06-01T13:22:03;16.67;;;8.73;;
27746;SDS011;15138;51.012;4.692;2023-06-01T13:24:32;16.95;;;7.35;;
27746;SDS011;15138;51.012;4.692;2023-06-01T13:27:19;10.00;;;6.07;;
27746;SDS011;15138;51.012;4.692;2023-06-01T13:29:47;15.18;;;7.25;;
27746;SDS011;15138;51.012;4.692;2023-06-01T13:32:17;10.68;;;5.55;;
27746;SDS011;15138;51.012;4.692;2023-06-01T13:34:45;10.35;;;6.70;;
27746;SDS011;15138;51.012;4.692;2023-06-01T13:37:14;11.50;;;6.55;;
27746;SDS011;15138;51.012;4.692;2023-06-01T13:39:44;14.63;;;7.53;;
27746;SDS011;15138;51.012;4.692;2023-06-01T13:42:13;15.23;;;7.10;;
27746;SDS011;15138;51.012;4.692;2023-06-01T13:44:43;10.93;;;5.45;;
27746;SDS011;15138;51.012;4.692;2023-06-01T13:47:13;18.40;;;7.10;;
27746;SDS011;15138;51.012;4.692;2023-06-01T13:49:43;11.25;;;5.80;;
27746;SDS011;15138;51.012;4.692;2023-06-01T13:52:12;12.18;;;6.38;;
27746;SDS011;15138;51.012;4.692;2023-06-01T13:54:40;12.32;;;6.93;;
27746;SDS011;15138;51.012;4.692;2023-06-01T13:57:09;11.60;;;6.90;;
27746;SDS011;15138;51.012;4.692;2023-06-01T13:59:37;12.63;;;6.15;;
27746;SDS011;15138;51.012;4.692;2023-06-01T14:02:06;9.38;;;4.95;;
27746;SDS011;15138;51.012;4.692;2023-06-01T14:04:35;18.98;;;6.32;;
27746;SDS011;15138;51.012;4.692;2023-06-01T14:07:05;16.20;;;7.03;;
27746;SDS011;15138;51.012;4.692;2023-06-01T14:09:33;13.40;;;6.35;;
27746;SDS011;15138;51.012;4.692;2023-06-01T14:12:01;13.35;;;6.15;;
27746;SDS011;15138;51.012;4.692;2023-06-01T14:14:30;16.98;;;6.65;;
27746;SDS011;15138;51.012;4.692;2023-06-01T14:16:58;13.30;;;5.97;;
27746;SDS011;15138;51.012;4.692;2023-06-01T14:19:26;10.95;;;6.00;;
27746;SDS011;15138;51.012;4.692;2023-06-01T14:21:54;14.38;;;5.70;;
27746;SDS011;15138;51.012;4.692;2023-06-01T14:24:24;9.13;;;5.75;;
27746;SDS011;15138;51.012;4.692;2023-06-01T14:26:52;10.20;;;5.25;;
27746;SDS011;15138;51.012;4.692;2023-06-01T14:29:21;10.48;;;5.65;;
27746;SDS011;15138;51.012;4.692;2023-06-01T14:31:49;9.40;;;4.50;;
27746;SDS011;15138;51.012;4.692;2023-06-01T14:34:17;13.13;;;4.97;;
27746;SDS011;15138;51.012;4.692;2023-06-01T14:36:46;15.70;;;3.65;;
27746;SDS011;15138;51.012;4.692;2023-06-01T14:39:14;12.73;;;4.50;;
27746;SDS011;15138;51.012;4.692;2023-06-01T14:41:44;12.98;;;6.07;;
27746;SDS011;15138;51.012;4.692;2023-06-01T14:44:12;12.45;;;5.30;;
27746;SDS011;15138;51.012;4.692;2023-06-01T14:46:40;8.43;;;5.63;;
27746;SDS011;15138;51.012;4.692;2023-06-01T14:49:09;11.32;;;4.93;;
27746;SDS011;15138;51.012;4.692;2023-06-01T14:51:37;18.05;;;5.80;;
27746;SDS011;15138;51.012;4.692;2023-06-01T14:54:05;9.60;;;3.50;;
27746;SDS011;15138;51.012;4.692;2023-06-01T14:56:34;13.95;;;5.40;;
27746;SDS011;15138;51.012;4.692;2023-06-01T14:59:03;12.95;;;5.43;;
27746;SDS011;15138;51.012;4.692;2023-06-01T15:01:32;11.50;;;5.43;;
27746;SDS011;15138;51.012;4.692;2023-06-01T15:04:00;17.05;;;5.03;;